Time;durP1;ratioP1;P1;durP2;ratioP2;P2;SDS_P1;SDS_P2;PMS_P1;PMS_P2;Temp;Humidity;BMP_temperature;BMP_pressure;BME280_temperature;BME280_humidity;BME280_pressure;Samples;Min_cycle;Max_cycle;Signal;HPM_P1;HPM_P2
2022/03/28 00:01:19;;;;;;;12.02;6.35;;;;;;;;;;6215977;28;20089;-79
2022/03/28 00:04:21;;;;;;;11.40;6.75;;;;;;;;;;6215877;28;20069;-76
2022/03/28 00:07:23;;;;;;;11.95;6.93;;;;;;;;;;6215635;28;20050;-78
2022/03/28 00:10:25;;;;;;;10.73;6.15;;;;;;;;;;6214935;28;20125;-79
2022/03/28 00:13:27;;;;;;;12.73;7.00;;;;;;;;;;6215810;28;20721;-79
2022/03/28 00:16:29;;;;;;;13.48;6.50;;;;;;;;;;6213684;28;20124;-79
2022/03/28 00:19:31;;;;;;;11.07;6.15;;;;;;;;;;6212571;28;20049;-76
2022/03/28 00:22:33;;;;;;;12.40;6.53;;;;;;;;;;6214297;28;20049;-79
2022/03/28 00:25:35;;;;;;;10.25;6.20;;;;;;;;;;6235252;28;20048;-78
2022/03/28 00:28:37;;;;;;;11.00;6.18;;;;;;;;;;6231583;28;20072;-77
2022/03/28 00:31:39;;;;;;;11.98;6.53;;;;;;;;;;6216716;28;20042;-77
2022/03/28 00:34:41;;;;;;;12.82;6.65;;;;;;;;;;6219758;28;20436;-78
2022/03/28 00:37:43;;;;;;;10.23;5.85;;;;;;;;;;6228490;28;20056;-78
2022/03/28 00:40:44;;;;;;;11.77;6.43;;;;;;;;;;6215239;28;20563;-79
2022/03/28 00:43:57;;;;;;;10.82;6.07;;;;;;;;;;6221168;28;20107;-78
2022/03/28 00:46:59;;;;;;;10.98;5.90;;;;;;;;;;6226968;28;20167;-78
2022/03/28 00:50:02;;;;;;;13.23;6.70;;;;;;;;;;6215805;28;20070;-78
2022/03/28 00:53:05;;;;;;;11.57;6.33;;;;;;;;;;6212903;28;20038;-78
2022/03/28 00:56:07;;;;;;;11.18;6.28;;;;;;;;;;6214948;28;20128;-77
2022/03/28 00:59:11;;;;;;;12.90;6.72;;;;;;;;;;6222909;28;20053;-79
2022/03/28 01:02:13;;;;;;;14.88;7.22;;;;;;;;;;6236647;28;20092;-78
2022/03/28 01:05:16;;;;;;;12.52;7.00;;;;;;;;;;6215201;28;20495;-80
2022/03/28 01:08:18;;;;;;;11.07;6.60;;;;;;;;;;6225827;28;20042;-78
2022/03/28 01:11:20;;;;;;;13.55;6.47;;;;;;;;;;6214762;28;20041;-78
2022/03/28 01:14:22;;;;;;;10.45;6.20;;;;;;;;;;6214840;28;20574;-79
2022/03/28 01:20:44;;;;;;;13.70;6.55;;;;;;;;;;6214380;28;20157;-77
2022/03/28 01:23:46;;;;;;;12.93;6.93;;;;;;;;;;6214115;28;20180;-78
2022/03/28 01:26:50;;;;;;;12.68;6.90;;;;;;;;;;6213337;28;20192;-78
2022/03/28 01:29:51;;;;;;;13.82;7.03;;;;;;;;;;6212761;28;20137;-77
2022/03/28 01:32:54;;;;;;;13.02;7.43;;;;;;;;;;6213497;28;20135;-78
2022/03/28 01:35:57;;;;;;;10.50;6.35;;;;;;;;;;6212854;28;20185;-79
2022/03/28 01:38:58;;;;;;;11.07;6.25;;;;;;;;;;6218833;28;20113;-79
2022/03/28 01:42:00;;;;;;;10.57;6.30;;;;;;;;;;6221825;28;20050;-77
2022/03/28 01:45:02;;;;;;;11.88;6.72;;;;;;;;;;6188731;28;20121;-78
2022/03/28 01:48:04;;;;;;;11.77;6.80;;;;;;;;;;6214865;28;20615;-79
2022/03/28 01:51:06;;;;;;;10.67;6.03;;;;;;;;;;6210165;28;20559;-77
2022/03/28 01:54:08;;;;;;;13.45;6.88;;;;;;;;;;6239311;28;20042;-79
2022/03/28 01:57:10;;;;;;;12.05;6.63;;;;;;;;;;6216036;28;20196;-78
2022/03/28 02:00:14;;;;;;;13.98;6.32;;;;;;;;;;6219984;28;20038;-80
2022/03/28 02:03:16;;;;;;;11.43;6.00;;;;;;;;;;6206894;28;20133;-77
2022/03/28 02:06:18;;;;;;;12.23;6.95;;;;;;;;;;6213191;28;20053;-79
2022/03/28 02:09:19;;;;;;;13.85;6.95;;;;;;;;;;6215448;28;20519;-77
2022/03/28 02:12:21;;;;;;;12.77;7.10;;;;;;;;;;6212202;28;20581;-79
2022/03/28 02:15:24;;;;;;;13.57;6.90;;;;;;;;;;6213066;28;20038;-77
2022/03/28 02:18:26;;;;;;;14.90;7.47;;;;;;;;;;6214840;28;20058;-79
2022/03/28 02:21:27;;;;;;;12.35;6.88;;;;;;;;;;6215868;28;20042;-77
2022/03/28 02:24:29;;;;;;;13.20;6.72;;;;;;;;;;6215858;28;20632;-79
2022/03/28 02:27:30;;;;;;;14.10;6.15;;;;;;;;;;6219208;28;20484;-81
2022/03/28 02:30:32;;;;;;;13.20;6.35;;;;;;;;;;6219016;28;20132;-81
2022/03/28 02:33:34;;;;;;;11.60;6.63;;;;;;;;;;6219850;28;20041;-80
2022/03/28 02:36:35;;;;;;;11.93;6.20;;;;;;;;;;6217230;28;20054;-79
2022/03/28 02:39:37;;;;;;;13.23;6.85;;;;;;;;;;6219611;28;20033;-80
2022/03/28 02:42:39;;;;;;;13.98;7.82;;;;;;;;;;6219815;28;20041;-79
2022/03/28 02:45:41;;;;;;;17.08;7.50;;;;;;;;;;6222106;28;20195;-80
2022/03/28 02:48:42;;;;;;;14.23;7.32;;;;;;;;;;6232726;28;20064;-79
2022/03/28 02:51:44;;;;;;;13.02;6.68;;;;;;;;;;6238127;28;20111;-79
2022/03/28 02:54:46;;;;;;;10.20;6.00;;;;;;;;;;6244171;28;20041;-79
2022/03/28 02:57:47;;;;;;;12.55;6.55;;;;;;;;;;6242338;28;20073;-77
2022/03/28 03:00:49;;;;;;;12.45;6.97;;;;;;;;;;6219169;28;20176;-79
2022/03/28 03:03:51;;;;;;;15.15;7.45;;;;;;;;;;6220318;28;20042;-80
2022/03/28 03:06:52;;;;;;;13.73;7.20;;;;;;;;;;6218788;28;20041;-80
2022/03/28 03:09:54;;;;;;;13.90;7.28;;;;;;;;;;6217369;28;20042;-78
2022/03/28 03:12:56;;;;;;;16.05;7.78;;;;;;;;;;6233615;28;20131;-80
2022/03/28 03:15:59;;;;;;;14.02;6.70;;;;;;;;;;6241444;28;20109;-79
2022/03/28 03:19:01;;;;;;;16.08;7.03;;;;;;;;;;6239814;28;20049;-79
2022/03/28 03:22:03;;;;;;;15.82;6.70;;;;;;;;;;6238063;28;20042;-77
2022/03/28 03:25:05;;;;;;;12.98;7.13;;;;;;;;;;6211642;28;20072;-78
2022/03/28 03:28:07;;;;;;;12.05;7.10;;;;;;;;;;6217315;28;20125;-77
2022/03/28 03:31:09;;;;;;;16.65;7.82;;;;;;;;;;6271548;28;20110;-78
2022/03/28 03:34:10;;;;;;;12.85;7.00;;;;;;;;;;6241102;28;20131;-79
2022/03/28 03:37:12;;;;;;;14.13;7.28;;;;;;;;;;6226818;28;20061;-77
2022/03/28 03:40:14;;;;;;;12.18;6.65;;;;;;;;;;6213288;28;20526;-78
2022/03/28 03:43:15;;;;;;;13.63;7.07;;;;;;;;;;6197424;28;20119;-76
2022/03/28 03:46:17;;;;;;;14.35;6.65;;;;;;;;;;6220424;28;20066;-77
2022/03/28 03:49:19;;;;;;;16.45;6.72;;;;;;;;;;6238916;28;20049;-78
2022/03/28 03:52:21;;;;;;;12.95;6.28;;;;;;;;;;6222469;28;20060;-77
2022/03/28 03:55:23;;;;;;;14.43;7.28;;;;;;;;;;6213314;28;20655;-77
2022/03/28 03:58:25;;;;;;;13.82;6.88;;;;;;;;;;6216209;28;20598;-80
2022/03/28 04:01:27;;;;;;;16.67;7.47;;;;;;;;;;6215511;28;20599;-79
2022/03/28 04:04:29;;;;;;;12.75;6.65;;;;;;;;;;6229277;28;20042;-80
2022/03/28 04:07:30;;;;;;;14.35;7.03;;;;;;;;;;6224938;28;20559;-78
2022/03/28 04:10:34;;;;;;;13.20;6.65;;;;;;;;;;6216122;28;20618;-79
2022/03/28 04:13:36;;;;;;;17.35;7.32;;;;;;;;;;6232251;28;20065;-77
2022/03/28 04:16:37;;;;;;;12.20;6.70;;;;;;;;;;6215808;28;20096;-77
2022/03/28 04:19:39;;;;;;;11.52;6.45;;;;;;;;;;6247292;28;20038;-79
2022/03/28 04:22:42;;;;;;;14.70;7.20;;;;;;;;;;6215722;28;20125;-78
2022/03/28 04:25:44;;;;;;;12.55;6.68;;;;;;;;;;6191688;28;20046;-78
2022/03/28 04:28:46;;;;;;;13.00;6.95;;;;;;;;;;6215837;28;20038;-78
2022/03/28 04:31:48;;;;;;;14.23;6.45;;;;;;;;;;6215568;28;20065;-78
2022/03/28 04:34:49;;;;;;;12.85;7.13;;;;;;;;;;6216840;28;20046;-79
2022/03/28 04:37:51;;;;;;;16.58;7.70;;;;;;;;;;6215830;28;20115;-77
2022/03/28 04:40:53;;;;;;;14.18;7.38;;;;;;;;;;6216259;28;20129;-77
2022/03/28 04:43:54;;;;;;;13.45;6.50;;;;;;;;;;6215269;28;20108;-79
2022/03/28 04:46:56;;;;;;;15.35;7.28;;;;;;;;;;6215128;28;20038;-79
2022/03/28 04:49:58;;;;;;;11.00;6.95;;;;;;;;;;6213229;28;20512;-77
2022/03/28 04:52:59;;;;;;;14.88;7.07;;;;;;;;;;6215600;28;20119;-79
2022/03/28 04:56:05;;;;;;;13.98;8.00;;;;;;;;;;6238196;28;20119;-77
2022/03/28 04:59:07;;;;;;;18.75;7.55;;;;;;;;;;6229309;28;20847;-80
2022/03/28 05:02:08;;;;;;;16.67;9.50;;;;;;;;;;6214481;28;20053;-77
2022/03/28 05:05:11;;;;;;;14.98;8.38;;;;;;;;;;6215157;28;20065;-77
2022/03/28 05:08:12;;;;;;;17.92;7.70;;;;;;;;;;6213901;28;20108;-77
2022/03/28 05:11:14;;;;;;;21.40;9.50;;;;;;;;;;6215505;28;20153;-79
2022/03/28 05:14:16;;;;;;;21.45;10.07;;;;;;;;;;6214755;28;20196;-79
2022/03/28 05:17:24;;;;;;;23.63;9.15;;;;;;;;;;6214260;28;20525;-77
2022/03/28 05:20:26;;;;;;;20.60;10.35;;;;;;;;;;6214426;28;20050;-77
2022/03/28 05:23:30;;;;;;;19.75;9.95;;;;;;;;;;6212597;28;20034;-78
2022/03/28 05:26:32;;;;;;;21.15;9.70;;;;;;;;;;6215343;28;20083;-76
2022/03/28 05:29:33;;;;;;;18.75;10.07;;;;;;;;;;6212963;28;20188;-78
2022/03/28 05:32:35;;;;;;;17.55;10.25;;;;;;;;;;6214540;28;20499;-78
2022/03/28 05:35:38;;;;;;;24.90;12.55;;;;;;;;;;6214622;28;20500;-78
2022/03/28 05:38:40;;;;;;;20.90;9.32;;;;;;;;;;6211766;28;20130;-77
2022/03/28 05:41:42;;;;;;;14.45;8.07;;;;;;;;;;6226843;28;20121;-78
2022/03/28 05:44:45;;;;;;;16.83;8.02;;;;;;;;;;6211080;28;20065;-78
2022/03/28 05:47:46;;;;;;;15.98;7.18;;;;;;;;;;6232381;28;20067;-78
2022/03/28 05:50:49;;;;;;;16.45;7.88;;;;;;;;;;6215884;28;20042;-77
2022/03/28 05:53:51;;;;;;;14.57;8.30;;;;;;;;;;6204786;28;20178;-78
2022/03/28 05:56:52;;;;;;;14.52;7.85;;;;;;;;;;6190135;28;20070;-78
2022/03/28 05:59:54;;;;;;;15.55;7.78;;;;;;;;;;6209110;28;20048;-78
2022/03/28 06:02:57;;;;;;;15.57;8.55;;;;;;;;;;6219488;28;20042;-78
2022/03/28 06:06:03;;;;;;;18.63;8.98;;;;;;;;;;6220533;28;20055;-77
2022/03/28 06:09:05;;;;;;;15.85;8.10;;;;;;;;;;6220650;28;20046;-79
2022/03/28 06:12:08;;;;;;;20.73;8.93;;;;;;;;;;6218786;28;20053;-76
2022/03/28 06:15:10;;;;;;;19.35;8.88;;;;;;;;;;6234282;28;20125;-76
2022/03/28 06:18:11;;;;;;;17.30;7.97;;;;;;;;;;6218441;28;20094;-77
2022/03/28 06:21:13;;;;;;;23.27;9.77;;;;;;;;;;6217010;28;20060;-76
2022/03/28 06:24:14;;;;;;;21.58;9.27;;;;;;;;;;6218494;28;20562;-78
2022/03/28 06:27:16;;;;;;;18.75;8.77;;;;;;;;;;6217233;28;20069;-78
2022/03/28 06:30:18;;;;;;;15.45;7.35;;;;;;;;;;6214961;28;20176;-78
2022/03/28 06:33:19;;;;;;;12.80;6.68;;;;;;;;;;6217730;28;20088;-77
2022/03/28 06:36:21;;;;;;;12.60;7.22;;;;;;;;;;6218161;28;20049;-76
2022/03/28 06:39:23;;;;;;;11.52;6.47;;;;;;;;;;6218533;28;20046;-78
2022/03/28 06:42:25;;;;;;;13.82;7.88;;;;;;;;;;6218594;28;20042;-77
2022/03/28 06:45:26;;;;;;;14.23;8.27;;;;;;;;;;6217601;28;20080;-79
2022/03/28 06:48:28;;;;;;;18.10;8.95;;;;;;;;;;6242007;28;20710;-79
2022/03/28 06:51:35;;;;;;;16.92;8.55;;;;;;;;;;6233180;28;20056;-79
2022/03/28 06:54:37;;;;;;;13.88;7.82;;;;;;;;;;6215852;28;20112;-78
2022/03/28 06:57:38;;;;;;;15.15;7.53;;;;;;;;;;6214811;28;20136;-77
2022/03/28 07:00:40;;;;;;;14.82;7.75;;;;;;;;;;6211458;28;20048;-77
2022/03/28 07:03:42;;;;;;;13.10;8.00;;;;;;;;;;6221891;28;20041;-77
2022/03/28 07:06:44;;;;;;;14.73;7.95;;;;;;;;;;6221187;28;20181;-78
2022/03/28 07:09:46;;;;;;;16.40;9.05;;;;;;;;;;6249794;28;20244;-75
2022/03/28 07:12:50;;;;;;;18.13;8.75;;;;;;;;;;6217951;28;20121;-78
2022/03/28 07:15:52;;;;;;;14.13;8.23;;;;;;;;;;6216844;28;20044;-77
2022/03/28 07:18:54;;;;;;;14.65;8.25;;;;;;;;;;6218564;28;20050;-81
2022/03/28 07:21:55;;;;;;;14.65;8.25;;;;;;;;;;6233181;28;20129;-79
2022/03/28 07:24:57;;;;;;;12.77;7.07;;;;;;;;;;6219006;28;20042;-78
2022/03/28 07:27:59;;;;;;;15.45;8.13;;;;;;;;;;6248099;28;20097;-79
2022/03/28 07:31:01;;;;;;;13.73;7.60;;;;;;;;;;6237187;28;20457;-79
2022/03/28 07:37:23;;;;;;;14.65;7.22;;;;;;;;;;6232042;28;20137;-78
2022/03/28 07:40:25;;;;;;;13.85;8.00;;;;;;;;;;6221385;28;20120;-78
2022/03/28 07:43:26;;;;;;;14.38;7.50;;;;;;;;;;6213146;28;20050;-78
2022/03/28 07:46:28;;;;;;;11.40;7.10;;;;;;;;;;6223830;28;20132;-77
2022/03/28 07:49:31;;;;;;;16.02;9.05;;;;;;;;;;6240086;28;20112;-76
2022/03/28 07:52:34;;;;;;;12.52;7.75;;;;;;;;;;6238887;28;20437;-79
2022/03/28 07:55:35;;;;;;;16.52;8.70;;;;;;;;;;6239973;28;20048;-80
2022/03/28 07:58:37;;;;;;;13.88;8.40;;;;;;;;;;6217117;28;20041;-78
2022/03/28 08:01:39;;;;;;;11.50;6.88;;;;;;;;;;6214323;28;20121;-79
2022/03/28 08:04:43;;;;;;;13.20;7.15;;;;;;;;;;6215569;28;20052;-80
2022/03/28 08:07:45;;;;;;;11.20;7.18;;;;;;;;;;6213155;28;20100;-80
2022/03/28 08:10:46;;;;;;;11.70;7.20;;;;;;;;;;6215040;28;20573;-79
2022/03/28 08:13:48;;;;;;;13.98;7.18;;;;;;;;;;6215263;28;20125;-80
2022/03/28 08:16:50;;;;;;;14.20;7.20;;;;;;;;;;6212034;28;20129;-80
2022/03/28 08:19:51;;;;;;;12.82;7.40;;;;;;;;;;6213067;28;20140;-83
2022/03/28 08:22:54;;;;;;;9.73;6.43;;;;;;;;;;6213411;28;20113;-81
2022/03/28 08:25:55;;;;;;;13.20;6.07;;;;;;;;;;6214050;28;20042;-81
2022/03/28 08:28:57;;;;;;;9.25;6.30;;;;;;;;;;6223680;28;20140;-82
2022/03/28 08:32:00;;;;;;;13.60;7.03;;;;;;;;;;6239318;28;20122;-81
2022/03/28 08:35:04;;;;;;;8.85;6.13;;;;;;;;;;6237524;28;20044;-81
2022/03/28 08:38:05;;;;;;;;;;;;;;;;;;6239734;28;20436;-82
2022/03/28 08:41:13;;;;;;;12.27;7.45;;;;;;;;;;6257762;28;19956;-81
2022/03/28 08:44:17;;;;;;;14.23;9.65;;;;;;;;;;6241333;28;20483;-82
2022/03/28 08:47:22;;;;;;;14.18;8.98;;;;;;;;;;6239216;28;20100;-82
2022/03/28 08:50:23;;;;;;;12.35;7.65;;;;;;;;;;6238215;28;20088;-82
2022/03/28 08:53:25;;;;;;;9.43;7.10;;;;;;;;;;6231664;28;20104;-83
2022/03/28 08:56:27;;;;;;;10.43;6.65;;;;;;;;;;6215386;28;20054;-86
2022/03/28 08:59:42;;;;;;;10.07;7.00;;;;;;;;;;6238293;28;20037;-81
2022/03/28 09:02:46;;;;;;;10.00;7.18;;;;;;;;;;6240701;28;20698;-84
2022/03/28 09:05:49;;;;;;;9.95;5.75;;;;;;;;;;6241042;28;20041;-82
2022/03/28 09:08:51;;;;;;;10.10;6.60;;;;;;;;;;6196783;28;20700;-80
2022/03/28 09:12:06;;;;;;;8.25;6.03;;;;;;;;;;6212144;28;20663;-81
2022/03/28 09:15:09;;;;;;;10.52;6.70;;;;;;;;;;6226058;28;20050;-81
2022/03/28 09:18:34;;;;;;;7.05;5.60;;;;;;;;;;6217570;28;20101;-82
2022/03/28 09:21:37;;;;;;;8.38;6.20;;;;;;;;;;6216628;28;20088;-82
2022/03/28 09:24:39;;;;;;;;;;;;;;;;;;6221203;28;20046;-83
2022/03/28 09:27:41;;;;;;;7.90;5.50;;;;;;;;;;6215810;28;20009;-81
2022/03/28 09:30:43;;;;;;;7.40;5.70;;;;;;;;;;6214824;28;20520;-83
2022/03/28 09:34:00;;;;;;;9.02;5.90;;;;;;;;;;6213525;28;20046;-83
2022/03/28 09:37:02;;;;;;;7.18;5.40;;;;;;;;;;6215110;28;20053;-82
2022/03/28 09:40:25;;;;;;;8.00;5.30;;;;;;;;;;6218042;28;20042;-83
2022/03/28 09:43:31;;;;;;;9.38;5.43;;;;;;;;;;6216129;28;20129;-79
2022/03/28 09:46:34;;;;;;;10.52;6.78;;;;;;;;;;6216401;28;20045;-81
2022/03/28 09:49:42;;;;;;;10.65;7.38;;;;;;;;;;6219095;28;20050;-83
2022/03/28 09:52:43;;;;;;;11.98;6.90;;;;;;;;;;6239609;28;20068;-82
2022/03/28 09:55:46;;;;;;;9.82;6.70;;;;;;;;;;6254057;28;20132;-81
2022/03/28 09:59:04;;;;;;;10.82;7.38;;;;;;;;;;6234245;28;20080;-82
2022/03/28 10:02:22;;;;;;;12.00;7.22;;;;;;;;;;6218941;28;20125;-79
2022/03/28 10:05:24;;;;;;;11.50;6.32;;;;;;;;;;6222837;28;20125;-80
2022/03/28 10:08:27;;;;;;;12.65;7.22;;;;;;;;;;6233425;28;20123;-81
2022/03/28 10:11:29;;;;;;;;;;;;;;;;;;6235897;28;20671;-80
2022/03/28 10:14:31;;;;;;;10.32;6.43;;;;;;;;;;6206909;28;19949;-82
2022/03/28 10:17:33;;;;;;;13.32;7.03;;;;;;;;;;6229579;28;20104;-82
2022/03/28 10:20:36;;;;;;;10.43;7.00;;;;;;;;;;6226762;28;20088;-82
2022/03/28 10:23:50;;;;;;;11.15;7.10;;;;;;;;;;6228071;28;20121;-82
2022/03/28 10:26:55;;;;;;;12.82;6.80;;;;;;;;;;6214269;28;20127;-82
2022/03/28 10:30:11;;;;;;;9.93;6.18;;;;;;;;;;6212736;28;20038;-82
2022/03/28 10:33:19;;;;;;;12.02;7.10;;;;;;;;;;6212803;28;20065;-83
2022/03/28 10:36:23;;;;;;;9.43;6.07;;;;;;;;;;6212463;28;20659;-81
2022/03/28 10:39:37;;;;;;;8.07;5.18;;;;;;;;;;6214087;28;20511;-80
2022/03/28 10:42:52;;;;;;;7.97;5.13;;;;;;;;;;6211033;28;20525;-81
2022/03/28 10:45:59;;;;;;;8.00;5.38;;;;;;;;;;6227448;28;20042;-83
2022/03/28 10:49:02;;;;;;;8.52;5.50;;;;;;;;;;6217731;28;20510;-81
2022/03/28 10:52:04;;;;;;;10.93;6.22;;;;;;;;;;6215719;28;20159;-82
2022/03/28 10:55:08;;;;;;;9.02;5.47;;;;;;;;;;6216180;28;20073;-82
2022/03/28 10:58:18;;;;;;;9.63;5.63;;;;;;;;;;6231666;28;20053;-82
2022/03/28 11:01:22;;;;;;;8.02;5.38;;;;;;;;;;6217914;28;20419;-83
2022/03/28 11:04:24;;;;;;;9.13;5.43;;;;;;;;;;6224556;28;20113;-83
2022/03/28 11:07:26;;;;;;;8.35;5.70;;;;;;;;;;6221004;28;20049;-83
2022/03/28 11:10:28;;;;;;;8.90;5.38;;;;;;;;;;6233651;28;20109;-83
2022/03/28 11:13:33;;;;;;;8.98;5.25;;;;;;;;;;6221509;28;20075;-80
2022/03/28 11:16:53;;;;;;;9.95;5.70;;;;;;;;;;6222313;28;20185;-80
2022/03/28 11:20:00;;;;;;;10.23;5.53;;;;;;;;;;6223426;28;20112;-79
2022/03/28 11:23:10;;;;;;;7.65;5.03;;;;;;;;;;6225664;28;20042;-80
2022/03/28 11:26:22;;;;;;;7.28;4.75;;;;;;;;;;6229018;28;20045;-80
2022/03/28 11:29:23;;;;;;;7.65;5.20;;;;;;;;;;6224120;28;20644;-80
2022/03/28 11:32:30;;;;;;;6.35;4.82;;;;;;;;;;6236235;28;20126;-80
2022/03/28 11:35:32;;;;;;;14.25;5.30;;;;;;;;;;6223091;28;20501;-80
2022/03/28 11:38:37;;;;;;;9.87;5.23;;;;;;;;;;6238977;28;20045;-81
2022/03/28 11:41:39;;;;;;;10.07;4.93;;;;;;;;;;6229413;28;20444;-80
2022/03/28 11:44:41;;;;;;;8.65;4.68;;;;;;;;;;6232275;28;20136;-80
2022/03/28 11:47:50;;;;;;;9.43;5.15;;;;;;;;;;6234055;28;20129;-80
2022/03/28 11:50:55;;;;;;;6.78;4.35;;;;;;;;;;6232811;28;20096;-79
2022/03/28 11:54:07;;;;;;;6.50;4.40;;;;;;;;;;6218797;28;20080;-78
2022/03/28 12:01:10;;;;;;;7.78;4.57;;;;;;;;;;6217727;28;20180;-78
2022/03/28 12:04:12;;;;;;;7.28;4.10;;;;;;;;;;6219006;28;20053;-80
2022/03/28 12:07:14;;;;;;;7.07;4.40;;;;;;;;;;6218767;28;20053;-79
2022/03/28 12:10:16;;;;;;;7.57;3.78;;;;;;;;;;6217920;28;20197;-78
2022/03/28 12:13:19;;;;;;;7.80;4.72;;;;;;;;;;6220359;28;20492;-78
2022/03/28 12:16:21;;;;;;;8.32;4.25;;;;;;;;;;6241415;28;20113;-79
2022/03/28 12:19:26;;;;;;;7.65;4.25;;;;;;;;;;6239340;28;20158;-79
2022/03/28 12:22:28;;;;;;;5.53;3.95;;;;;;;;;;6266241;28;20200;-81
2022/03/28 12:25:36;;;;;;;7.83;4.13;;;;;;;;;;6214837;28;20479;-79
2022/03/28 12:28:40;;;;;;;9.20;4.35;;;;;;;;;;6216008;28;20457;-79
2022/03/28 12:31:47;;;;;;;8.00;4.32;;;;;;;;;;6214399;28;20064;-80
2022/03/28 12:34:49;;;;;;;9.32;4.65;;;;;;;;;;6213686;28;20049;-78
2022/03/28 12:38:04;;;;;;;5.67;3.80;;;;;;;;;;6213720;28;20057;-79
2022/03/28 12:41:08;;;;;;;6.38;4.45;;;;;;;;;;6211753;28;20065;-79
2022/03/28 12:44:15;;;;;;;7.95;4.75;;;;;;;;;;6211100;28;20121;-80
2022/03/28 12:47:17;;;;;;;7.88;4.65;;;;;;;;;;6211852;28;20050;-79
2022/03/28 12:50:18;;;;;;;6.53;4.45;;;;;;;;;;6236742;28;20128;-80
2022/03/28 12:53:25;;;;;;;8.38;4.30;;;;;;;;;;6212618;28;20153;-79
2022/03/28 12:56:27;;;;;;;7.07;4.50;;;;;;;;;;6211612;28;20042;-79
2022/03/28 12:59:30;;;;;;;;;;;;;;;;;;6223575;28;20049;-80
2022/03/28 13:02:32;;;;;;;5.72;3.83;;;;;;;;;;6237561;28;19921;-78
2022/03/28 13:05:35;;;;;;;8.07;4.07;;;;;;;;;;6240760;28;20514;-79
2022/03/28 13:08:38;;;;;;;5.07;3.88;;;;;;;;;;6225128;28;20598;-78
2022/03/28 13:11:40;;;;;;;5.03;3.80;;;;;;;;;;6217050;28;20120;-82
2022/03/28 13:14:47;;;;;;;6.68;4.30;;;;;;;;;;6217955;28;20100;-80
2022/03/28 13:18:06;;;;;;;6.15;3.67;;;;;;;;;;6217475;28;20053;-80
2022/03/28 13:21:14;;;;;;;5.72;3.90;;;;;;;;;;6229004;28;20399;-80
2022/03/28 13:24:19;;;;;;;;;;;;;;;;;;6217965;28;20184;-79
2022/03/28 13:30:54;;;;;;;5.57;4.22;;;;;;;;;;6221395;28;20439;-77
2022/03/28 13:33:56;;;;;;;7.38;4.45;;;;;;;;;;6198161;28;20054;-78
2022/03/28 13:36:58;;;;;;;6.60;4.43;;;;;;;;;;6217772;28;20061;-80
2022/03/28 13:40:00;;;;;;;5.25;4.13;;;;;;;;;;6210153;28;20117;-80
2022/03/28 13:43:02;;;;;;;8.13;5.13;;;;;;;;;;6194422;28;20085;-79
2022/03/28 13:46:08;;;;;;;7.50;3.78;;;;;;;;;;6227390;28;20056;-77
2022/03/28 13:49:10;;;;;;;5.35;3.53;;;;;;;;;;6227774;28;20053;-77
2022/03/28 13:52:16;;;;;;;8.18;4.53;;;;;;;;;;6226827;28;20041;-76
2022/03/28 13:55:18;;;;;;;7.93;4.85;;;;;;;;;;6202661;28;20111;-75
2022/03/28 13:58:20;;;;;;;7.78;4.47;;;;;;;;;;6201086;28;20490;-76
2022/03/28 14:01:27;;;;;;;7.37;4.53;;;;;;;;;;6204655;28;20073;-78
2022/03/28 14:04:29;;;;;;;8.10;4.25;;;;;;;;;;6207414;28;20120;-81
2022/03/28 14:07:31;;;;;;;6.85;4.70;;;;;;;;;;6208668;28;20069;-81
2022/03/28 14:10:33;;;;;;;6.07;4.28;;;;;;;;;;6205032;28;20607;-78
2022/03/28 14:13:35;;;;;;;8.73;4.53;;;;;;;;;;6212244;28;20095;-78
2022/03/28 14:16:37;;;;;;;9.32;5.28;;;;;;;;;;6213291;28;20046;-77
2022/03/28 14:19:41;;;;;;;;;;;;;;;;;;6216925;28;20045;-81
2022/03/28 14:22:43;;;;;;;7.75;4.75;;;;;;;;;;6235914;28;19990;-80
2022/03/28 14:25:45;;;;;;;6.93;4.65;;;;;;;;;;6215195;28;20588;-83
2022/03/28 14:28:47;;;;;;;7.50;4.53;;;;;;;;;;6215923;28;20073;-81
2022/03/28 14:31:49;;;;;;;6.13;4.17;;;;;;;;;;6235241;28;20531;-79
2022/03/28 14:34:52;;;;;;;7.97;4.10;;;;;;;;;;6217931;28;20585;-79
2022/03/28 14:37:54;;;;;;;9.88;4.90;;;;;;;;;;6196516;28;20933;-80
2022/03/28 14:40:56;;;;;;;6.03;4.00;;;;;;;;;;6192242;28;20129;-81
2022/03/28 14:43:58;;;;;;;9.33;4.53;;;;;;;;;;6200754;28;20106;-76
2022/03/28 14:47:07;;;;;;;7.22;4.70;;;;;;;;;;6201785;28;20440;-78
2022/03/28 14:50:10;;;;;;;9.10;5.43;;;;;;;;;;6216175;28;20144;-79
2022/03/28 14:53:15;;;;;;;;;;;;;;;;;;6228938;28;20081;-80
2022/03/28 14:56:17;;;;;;;8.63;4.30;;;;;;;;;;6228404;28;19925;-78
2022/03/28 14:59:30;;;;;;;7.72;4.68;;;;;;;;;;6230141;28;20061;-79
2022/03/28 15:02:32;;;;;;;9.77;5.03;;;;;;;;;;6244535;28;20107;-80
2022/03/28 15:05:37;;;;;;;13.45;4.72;;;;;;;;;;6233354;28;20049;-80
2022/03/28 15:08:39;;;;;;;9.05;4.80;;;;;;;;;;6230687;28;20070;-80
2022/03/28 15:11:41;;;;;;;8.13;5.20;;;;;;;;;;6230780;28;20139;-80
2022/03/28 15:14:43;;;;;;;13.20;5.60;;;;;;;;;;6225828;28;20069;-80
2022/03/28 15:17:45;;;;;;;9.43;5.50;;;;;;;;;;6241048;28;20052;-81
2022/03/28 15:20:46;;;;;;;8.90;4.93;;;;;;;;;;6229551;28;20067;-81
2022/03/28 15:23:48;;;;;;;10.43;5.45;;;;;;;;;;6236629;28;20080;-80
2022/03/28 15:26:50;;;;;;;10.13;5.05;;;;;;;;;;6226476;28;20236;-83
2022/03/28 15:29:52;;;;;;;9.50;5.60;;;;;;;;;;6203133;28;20525;-81
2022/03/28 15:32:53;;;;;;;12.43;5.53;;;;;;;;;;6209365;28;20084;-81
2022/03/28 15:35:55;;;;;;;11.77;5.55;;;;;;;;;;6222097;28;20056;-80
2022/03/28 15:38:58;;;;;;;8.33;5.60;;;;;;;;;;6224651;28;20101;-78
2022/03/28 15:42:00;;;;;;;10.38;5.32;;;;;;;;;;6204877;28;20050;-79
2022/03/28 15:45:03;;;;;;;9.98;5.60;;;;;;;;;;6218469;28;20050;-81
2022/03/28 15:48:05;;;;;;;11.25;6.00;;;;;;;;;;6224344;28;20065;-81
2022/03/28 15:51:07;;;;;;;12.02;6.30;;;;;;;;;;6218494;28;20219;-78
2022/03/28 15:54:09;;;;;;;7.40;5.43;;;;;;;;;;6227932;28;20061;-77
2022/03/28 15:57:12;;;;;;;10.55;5.50;;;;;;;;;;6230754;28;20053;-79
2022/03/28 16:00:15;;;;;;;9.57;5.47;;;;;;;;;;6211737;28;20049;-82
2022/03/28 16:03:16;;;;;;;11.10;6.15;;;;;;;;;;6215407;28;20045;-83
2022/03/28 16:06:19;;;;;;;10.13;6.27;;;;;;;;;;6222875;28;20135;-82
2022/03/28 16:09:21;;;;;;;11.13;6.53;;;;;;;;;;6237254;28;20066;-81
2022/03/28 16:12:24;;;;;;;14.65;6.55;;;;;;;;;;6231394;28;20045;-81
2022/03/28 16:15:26;;;;;;;13.27;6.87;;;;;;;;;;6218077;28;20103;-80
2022/03/28 16:18:27;;;;;;;13.48;7.30;;;;;;;;;;6235165;28;20538;-81
2022/03/28 16:21:30;;;;;;;11.65;6.90;;;;;;;;;;6227936;28;20053;-82
2022/03/28 16:24:31;;;;;;;14.60;6.80;;;;;;;;;;6199376;28;20057;-81
2022/03/28 16:27:40;;;;;;;12.93;7.63;;;;;;;;;;6207669;28;20132;-81
2022/03/28 16:30:41;;;;;;;14.25;7.00;;;;;;;;;;6232212;28;20053;-81
2022/03/28 16:33:43;;;;;;;14.82;7.47;;;;;;;;;;6224724;28;20110;-83
2022/03/28 16:36:44;;;;;;;12.57;7.13;;;;;;;;;;6231185;28;20648;-82
2022/03/28 16:39:47;;;;;;;12.20;6.97;;;;;;;;;;6262323;28;20125;-82
2022/03/28 16:42:50;;;;;;;14.75;7.03;;;;;;;;;;6238096;28;20103;-84
2022/03/28 16:45:52;;;;;;;;;;;;;;;;;;6245738;28;20049;-81
2022/03/28 16:48:53;;;;;;;10.63;6.22;;;;;;;;;;6235434;28;19922;-82
2022/03/28 16:51:55;;;;;;;11.95;7.28;;;;;;;;;;6210564;28;20125;-81
2022/03/28 16:54:57;;;;;;;10.50;6.28;;;;;;;;;;6212815;28;20156;-81
2022/03/28 16:57:59;;;;;;;14.93;6.97;;;;;;;;;;6212118;28;20522;-81
2022/03/28 17:01:03;;;;;;;10.15;6.10;;;;;;;;;;6210526;28;20444;-82
2022/03/28 17:04:05;;;;;;;11.07;6.60;;;;;;;;;;6262003;28;20101;-82
2022/03/28 17:07:07;;;;;;;15.55;7.38;;;;;;;;;;6210862;28;20038;-81
2022/03/28 17:10:10;;;;;;;13.27;6.82;;;;;;;;;;6242647;28;20052;-82
2022/03/28 17:13:12;;;;;;;13.35;6.70;;;;;;;;;;6211392;28;20053;-84
2022/03/28 17:16:15;;;;;;;11.43;6.20;;;;;;;;;;6235665;28;20056;-82
2022/03/28 17:19:18;;;;;;;11.82;6.78;;;;;;;;;;6236803;28;20050;-80
2022/03/28 17:22:22;;;;;;;12.43;6.25;;;;;;;;;;6232691;28;20107;-81
2022/03/28 17:25:25;;;;;;;10.55;6.13;;;;;;;;;;6240976;28;20054;-78
2022/03/28 17:28:31;;;;;;;14.95;6.55;;;;;;;;;;6217630;28;20041;-80
2022/03/28 17:31:33;;;;;;;13.60;6.70;;;;;;;;;;6207862;28;20120;-82
2022/03/28 17:34:35;;;;;;;10.82;5.50;;;;;;;;;;6217717;28;20038;-82
2022/03/28 17:37:44;;;;;;;15.27;6.40;;;;;;;;;;6210583;28;20073;-82
2022/03/28 17:40:46;;;;;;;13.00;6.22;;;;;;;;;;6220161;28;20056;-82
2022/03/28 17:43:48;;;;;;;12.70;6.53;;;;;;;;;;6217694;28;20287;-83
2022/03/28 17:46:50;;;;;;;10.35;6.43;;;;;;;;;;6238740;28;20045;-83
2022/03/28 17:49:53;;;;;;;13.10;7.70;;;;;;;;;;6229527;28;20045;-83
2022/03/28 17:52:57;;;;;;;28.33;14.07;;;;;;;;;;6229202;28;20057;-82
2022/03/28 17:55:58;;;;;;;15.20;7.97;;;;;;;;;;6231140;28;20052;-82
2022/03/28 17:59:03;;;;;;;14.13;8.68;;;;;;;;;;6231633;28;20099;-79
2022/03/28 18:02:05;;;;;;;25.73;13.90;;;;;;;;;;6240294;28;20044;-82
2022/03/28 18:05:08;;;;;;;12.77;8.20;;;;;;;;;;6235160;28;20049;-83
2022/03/28 18:08:10;;;;;;;22.05;12.10;;;;;;;;;;6236177;28;20050;-81
2022/03/28 18:11:12;;;;;;;25.55;15.27;;;;;;;;;;6255416;28;20773;-82
2022/03/28 18:14:17;;;;;;;25.58;14.27;;;;;;;;;;6239702;28;20124;-82
2022/03/28 18:17:20;;;;;;;53.00;39.88;;;;;;;;;;6222962;28;20686;-82
2022/03/28 18:20:22;;;;;;;24.50;17.35;;;;;;;;;;6236699;28;20399;-82
2022/03/28 18:23:24;;;;;;;30.58;18.30;;;;;;;;;;6225886;28;20061;-80